Time;durP1;ratioP1;P1;durP2;ratioP2;P2;SDS_P1;SDS_P2;PMS_P1;PMS_P2;Temp;Humidity;BMP_temperature;BMP_pressure;BME280_temperature;BME280_humidity;BME280_pressure;Samples;Min_cycle;Max_cycle;Signal;HPM_P1;HPM_P2
2024/01/07 00:00:55;;;;;;;;;;;19.30;45.40;;;;;;5077322;28;19970;-58
2024/01/07 00:03:22;;;;;;;;;;;19.30;45.40;;;;;;5089875;28;19966;-58
2024/01/07 00:05:49;;;;;;;;;;;19.30;45.40;;;;;;5078832;28;20303;-57
2024/01/07 00:08:17;;;;;;;;;;;19.30;45.40;;;;;;5090423;28;19977;-56
2024/01/07 00:10:44;;;;;;;;;;;19.20;45.40;;;;;;5089569;28;20353;-58
2024/01/07 00:13:11;;;;;;;;;;;19.30;45.40;;;;;;5072573;28;19920;-55
2024/01/07 00:15:37;;;;;;;;;;;19.20;45.40;;;;;;5081578;28;20410;-56
2024/01/07 00:18:04;;;;;;;;;;;19.30;45.40;;;;;;5069674;28;19920;-55
2024/01/07 00:20:32;;;;;;;;;;;19.20;45.30;;;;;;5089336;28;20045;-58
2024/01/07 00:22:59;;;;;;;;;;;19.20;45.40;;;;;;5065053;28;19942;-56
2024/01/07 00:25:28;;;;;;;;;;;19.20;45.30;;;;;;5081436;28;19920;-55
2024/01/07 00:27:55;;;;;;;;;;;19.20;45.30;;;;;;5077858;28;19969;-56
2024/01/07 00:30:22;;;;;;;;;;;19.20;45.40;;;;;;5074250;28;19954;-57
2024/01/07 00:32:51;;;;;;;;;;;19.20;45.40;;;;;;5077288;28;19924;-58
2024/01/07 00:35:17;;;;;;;;;;;19.20;45.40;;;;;;5088487;28;19973;-56
2024/01/07 00:37:44;;;;;;;;;;;19.20;45.40;;;;;;5073847;28;19927;-56
2024/01/07 00:40:11;;;;;;;;;;;19.20;45.50;;;;;;5078933;28;19932;-57
2024/01/07 00:42:39;;;;;;;;;;;19.20;45.50;;;;;;5074059;28;19928;-55
2024/01/07 00:45:07;;;;;;;;;;;19.20;45.50;;;;;;5076596;28;19924;-53
2024/01/07 00:47:33;;;;;;;;;;;19.20;45.50;;;;;;5080724;28;19928;-55
2024/01/07 00:50:00;;;;;;;;;;;19.20;45.50;;;;;;5086021;28;19921;-56
2024/01/07 00:52:27;;;;;;;;;;;19.20;45.50;;;;;;5085309;28;19924;-57
2024/01/07 00:54:54;;;;;;;;;;;19.20;45.50;;;;;;5095781;28;19920;-56
2024/01/07 00:57:20;;;;;;;;;;;19.20;45.50;;;;;;5076523;28;20274;-56
2024/01/07 00:59:50;;;;;;;;;;;19.20;45.60;;;;;;5073926;28;19927;-56
2024/01/07 01:02:17;;;;;;;;;;;19.20;45.60;;;;;;5092175;28;20011;-57
2024/01/07 01:04:43;;;;;;;;;;;19.20;45.60;;;;;;5084495;28;20049;-54
2024/01/07 01:07:09;;;;;;;;;;;19.20;45.60;;;;;;5091532;28;19964;-54
2024/01/07 01:09:36;;;;;;;;;;;19.20;45.60;;;;;;5072670;28;19970;-58
2024/01/07 01:12:03;;;;;;;;;;;19.20;45.60;;;;;;5083770;28;19928;-58
2024/01/07 01:14:30;;;;;;;;;;;19.20;45.70;;;;;;5074448;28;19989;-56
2024/01/07 01:16:58;;;;;;;;;;;19.20;45.60;;;;;;5084301;28;19920;-57
2024/01/07 01:19:25;;;;;;;;;;;19.20;45.70;;;;;;5073267;28;19920;-56
2024/01/07 01:21:51;;;;;;;;;;;19.20;45.70;;;;;;5079129;28;19924;-55
2024/01/07 01:24:18;;;;;;;;;;;19.20;45.70;;;;;;5095294;28;19920;-57
2024/01/07 01:26:45;;;;;;;;;;;19.20;45.70;;;;;;5080126;28;19927;-54
2024/01/07 01:29:12;;;;;;;;;;;19.20;45.70;;;;;;5097775;28;19928;-56
2024/01/07 01:31:38;;;;;;;;;;;19.20;45.70;;;;;;5094565;28;19974;-57
2024/01/07 01:34:07;;;;;;;;;;;19.20;45.60;;;;;;5086404;28;19920;-54
2024/01/07 01:36:33;;;;;;;;;;;19.20;45.70;;;;;;5082295;28;19927;-56
2024/01/07 01:39:00;;;;;;;;;;;19.20;45.70;;;;;;5085589;28;19928;-57
2024/01/07 01:41:30;;;;;;;;;;;19.20;45.60;;;;;;5089249;28;19927;-54
2024/01/07 01:43:58;;;;;;;;;;;19.20;45.60;;;;;;5093187;28;19932;-50
2024/01/07 01:46:25;;;;;;;;;;;19.20;45.60;;;;;;5085311;28;19920;-55
2024/01/07 01:48:53;;;;;;;;;;;19.20;45.60;;;;;;5083729;28;19925;-56
2024/01/07 01:51:21;;;;;;;;;;;19.20;45.60;;;;;;5092793;28;19920;-55
2024/01/07 01:53:50;;;;;;;;;;;19.20;45.60;;;;;;5089909;28;19935;-57
2024/01/07 01:56:17;;;;;;;;;;;19.20;45.60;;;;;;5074956;28;20011;-57
2024/01/07 01:58:46;;;;;;;;;;;19.20;45.60;;;;;;5072474;28;19920;-55
2024/01/07 02:01:12;;;;;;;;;;;19.20;45.60;;;;;;5094267;28;19920;-53
2024/01/07 02:03:39;;;;;;;;;;;19.20;45.50;;;;;;5086514;28;20010;-55
2024/01/07 02:06:08;;;;;;;;;;;19.20;45.50;;;;;;5083099;28;19920;-54
2024/01/07 02:08:36;;;;;;;;;;;19.20;45.50;;;;;;5086194;28;19969;-53
2024/01/07 02:11:14;;;;;;;;;;;19.20;45.50;;;;;;5091553;28;19927;-54
2024/01/07 02:13:41;;;;;;;;;;;19.20;45.50;;;;;;5075398;28;19920;-54
2024/01/07 02:16:08;;;;;;;;;;;19.20;45.50;;;;;;5077282;28;20001;-58
2024/01/07 02:18:35;;;;;;;;;;;19.20;45.50;;;;;;5091533;28;19924;-56
2024/01/07 02:21:02;;;;;;;;;;;19.20;45.50;;;;;;5078586;28;19931;-52
2024/01/07 02:23:29;;;;;;;;;;;19.20;45.50;;;;;;5092926;28;19942;-56
2024/01/07 02:25:57;;;;;;;;;;;19.20;45.50;;;;;;5081799;28;19924;-56
2024/01/07 02:28:24;;;;;;;;;;;19.20;45.50;;;;;;5089944;28;20224;-53
2024/01/07 02:30:51;;;;;;;;;;;19.20;45.50;;;;;;5077470;28;19977;-57
2024/01/07 02:33:17;;;;;;;;;;;19.20;45.50;;;;;;5078388;28;19928;-55
2024/01/07 02:35:44;;;;;;;;;;;19.20;45.50;;;;;;5091089;28;19931;-56
2024/01/07 02:38:11;;;;;;;;;;;19.20;45.50;;;;;;5091639;28;20017;-54
2024/01/07 02:40:38;;;;;;;;;;;19.20;45.50;;;;;;5084258;28;19931;-56
2024/01/07 02:43:06;;;;;;;;;;;19.20;45.50;;;;;;5088993;28;20361;-57
2024/01/07 02:45:32;;;;;;;;;;;19.20;45.50;;;;;;5063433;28;19924;-56
2024/01/07 02:47:59;;;;;;;;;;;19.20;45.50;;;;;;5079812;28;19928;-56
2024/01/07 02:50:26;;;;;;;;;;;19.20;45.50;;;;;;5088321;28;19924;-54
2024/01/07 02:52:53;;;;;;;;;;;19.20;45.50;;;;;;5082050;28;19985;-56
2024/01/07 02:55:20;;;;;;;;;;;19.20;45.50;;;;;;5084501;28;19943;-55
2024/01/07 02:57:47;;;;;;;;;;;19.20;45.50;;;;;;5082618;28;19935;-56
2024/01/07 03:00:16;;;;;;;;;;;19.20;45.50;;;;;;5094554;28;19920;-54
2024/01/07 03:02:42;;;;;;;;;;;19.20;45.50;;;;;;5074680;28;19989;-56
2024/01/07 03:05:09;;;;;;;;;;;19.20;45.50;;;;;;5083835;28;19928;-56
2024/01/07 03:07:38;;;;;;;;;;;19.20;45.50;;;;;;5091288;28;20023;-57
2024/01/07 03:10:05;;;;;;;;;;;19.20;45.50;;;;;;5075401;28;19924;-56
2024/01/07 03:12:32;;;;;;;;;;;19.20;45.60;;;;;;5080344;28;19923;-54
2024/01/07 03:14:59;;;;;;;;;;;19.20;45.50;;;;;;5082091;28;19920;-56
2024/01/07 03:17:28;;;;;;;;;;;19.20;45.60;;;;;;5077654;28;20393;-56
2024/01/07 03:19:54;;;;;;;;;;;19.20;45.50;;;;;;5075980;28;19920;-53
2024/01/07 03:22:21;;;;;;;;;;;19.20;45.60;;;;;;5078542;28;19969;-56
2024/01/07 03:24:48;;;;;;;;;;;19.20;45.60;;;;;;5076390;28;19920;-56
2024/01/07 03:27:15;;;;;;;;;;;19.20;45.60;;;;;;5091057;28;20017;-56
2024/01/07 03:29:42;;;;;;;;;;;19.20;45.60;;;;;;5080418;28;19928;-54
2024/01/07 03:32:09;;;;;;;;;;;19.20;45.60;;;;;;5076948;28;19920;-57
2024/01/07 03:34:37;;;;;;;;;;;19.20;45.60;;;;;;5081340;28;20358;-57
2024/01/07 03:37:04;;;;;;;;;;;19.20;45.60;;;;;;5078964;28;19927;-56
2024/01/07 03:39:33;;;;;;;;;;;19.20;45.50;;;;;;5084006;28;19920;-57
2024/01/07 03:42:00;;;;;;;;;;;19.20;45.60;;;;;;5089897;28;19973;-57
2024/01/07 03:44:26;;;;;;;;;;;19.20;45.50;;;;;;5088495;28;19924;-57
2024/01/07 03:46:53;;;;;;;;;;;19.20;45.50;;;;;;5061594;28;19952;-56
2024/01/07 03:49:20;;;;;;;;;;;19.20;45.50;;;;;;5082723;28;19931;-56
2024/01/07 03:51:48;;;;;;;;;;;19.20;45.50;;;;;;5074429;28;19932;-55
2024/01/07 03:54:15;;;;;;;;;;;19.20;45.50;;;;;;5089374;28;19974;-56
2024/01/07 03:56:43;;;;;;;;;;;19.20;45.50;;;;;;5078998;28;19920;-54
2024/01/07 03:59:09;;;;;;;;;;;19.20;45.50;;;;;;5090160;28;19920;-56
2024/01/07 04:01:36;;;;;;;;;;;19.20;45.50;;;;;;5089290;28;20239;-55
2024/01/07 04:04:05;;;;;;;;;;;19.20;45.50;;;;;;5090821;28;19969;-56
2024/01/07 04:06:32;;;;;;;;;;;19.20;45.50;;;;;;5072650;28;19927;-57
2024/01/07 04:09:00;;;;;;;;;;;19.20;45.50;;;;;;5090395;28;19928;-54
2024/01/07 04:11:29;;;;;;;;;;;19.20;45.40;;;;;;5071185;28;19920;-57
2024/01/07 04:13:56;;;;;;;;;;;19.10;45.30;;;;;;5081771;28;19982;-55
2024/01/07 04:16:23;;;;;;;;;;;19.20;45.40;;;;;;5090685;28;19925;-56
2024/01/07 04:18:50;;;;;;;;;;;19.20;45.40;;;;;;5082429;28;19969;-55
2024/01/07 04:21:17;;;;;;;;;;;19.20;45.40;;;;;;5076802;28;19924;-53
2024/01/07 04:23:46;;;;;;;;;;;19.20;45.40;;;;;;5064194;28;20009;-52
2024/01/07 04:26:15;;;;;;;;;;;19.10;45.30;;;;;;5082271;28;19932;-54
2024/01/07 04:28:42;;;;;;;;;;;19.20;45.40;;;;;;5077911;28;19932;-57
2024/01/07 04:31:08;;;;;;;;;;;19.20;45.50;;;;;;5077765;28;19924;-57
2024/01/07 04:33:35;;;;;;;;;;;19.20;45.50;;;;;;5062167;28;19920;-53
2024/01/07 04:36:03;;;;;;;;;;;19.20;45.50;;;;;;5082685;28;19920;-56
2024/01/07 04:38:34;;;;;;;;;;;19.20;45.50;;;;;;5081827;28;19920;-56
2024/01/07 04:41:01;;;;;;;;;;;19.20;45.50;;;;;;5084242;28;20019;-53
2024/01/07 04:43:29;;;;;;;;;;;19.20;45.50;;;;;;5081358;28;19930;-54
2024/01/07 04:45:56;;;;;;;;;;;19.20;45.50;;;;;;5074807;28;19920;-54
2024/01/07 04:48:23;;;;;;;;;;;19.10;45.40;;;;;;5087480;28;19920;-55
2024/01/07 04:50:51;;;;;;;;;;;19.20;45.50;;;;;;5072229;28;20028;-56
2024/01/07 04:53:18;;;;;;;;;;;19.20;45.50;;;;;;5063044;28;19969;-53
2024/01/07 04:55:45;;;;;;;;;;;19.20;45.50;;;;;;5067985;28;19924;-53
2024/01/07 04:58:12;;;;;;;;;;;19.20;45.50;;;;;;5072408;28;19977;-55
2024/01/07 05:00:40;;;;;;;;;;;19.20;45.50;;;;;;5089665;28;19920;-52
2024/01/07 05:03:07;;;;;;;;;;;19.20;45.60;;;;;;5077484;28;19920;-53
2024/01/07 05:05:36;;;;;;;;;;;19.20;45.60;;;;;;5090273;28;19920;-55
2024/01/07 05:08:04;;;;;;;;;;;19.20;45.60;;;;;;5086884;28;19932;-56
2024/01/07 05:10:31;;;;;;;;;;;19.20;45.60;;;;;;5080014;28;19931;-55
2024/01/07 05:12:58;;;;;;;;;;;19.20;45.60;;;;;;5089583;28;19952;-54
2024/01/07 05:15:24;;;;;;;;;;;19.20;45.50;;;;;;5086237;28;19977;-54
2024/01/07 05:17:53;;;;;;;;;;;19.20;45.60;;;;;;5085161;28;19920;-56
2024/01/07 05:20:19;;;;;;;;;;;19.10;45.50;;;;;;5093072;28;19929;-53
2024/01/07 05:22:46;;;;;;;;;;;19.10;45.50;;;;;;5085702;28;19920;-55
2024/01/07 05:25:13;;;;;;;;;;;19.20;45.60;;;;;;5080303;28;19924;-55
2024/01/07 05:27:39;;;;;;;;;;;19.20;45.60;;;;;;5082368;28;19927;-56
2024/01/07 05:30:07;;;;;;;;;;;19.10;45.50;;;;;;5079897;28;19924;-56
2024/01/07 05:32:34;;;;;;;;;;;19.20;45.60;;;;;;5078696;28;19920;-56
2024/01/07 05:35:03;;;;;;;;;;;19.20;45.60;;;;;;5093815;28;19977;-56
2024/01/07 05:37:30;;;;;;;;;;;19.20;45.60;;;;;;5091162;28;19924;-56
2024/01/07 05:39:57;;;;;;;;;;;19.20;45.60;;;;;;5081811;28;19976;-56
2024/01/07 05:42:23;;;;;;;;;;;19.20;45.60;;;;;;5083662;28;19940;-56
2024/01/07 05:44:50;;;;;;;;;;;19.20;45.60;;;;;;5091060;28;20132;-58
2024/01/07 05:47:18;;;;;;;;;;;19.20;45.50;;;;;;5088743;28;19928;-57
2024/01/07 05:49:44;;;;;;;;;;;19.20;45.60;;;;;;5093271;28;19959;-56
2024/01/07 05:52:12;;;;;;;;;;;19.10;45.40;;;;;;5083603;28;19927;-57
2024/01/07 05:54:39;;;;;;;;;;;19.20;45.50;;;;;;5086149;28;19943;-57
2024/01/07 05:57:06;;;;;;;;;;;19.20;45.50;;;;;;5062194;28;20005;-57
2024/01/07 05:59:33;;;;;;;;;;;19.20;45.50;;;;;;5066651;28;19977;-56
2024/01/07 06:02:00;;;;;;;;;;;19.20;45.50;;;;;;5078581;28;19965;-56
2024/01/07 06:04:27;;;;;;;;;;;19.20;45.50;;;;;;5060837;28;19921;-56
2024/01/07 06:06:54;;;;;;;;;;;19.20;45.50;;;;;;5089941;28;19927;-56
2024/01/07 06:09:22;;;;;;;;;;;19.20;45.50;;;;;;5074087;28;19920;-56
2024/01/07 06:11:49;;;;;;;;;;;19.20;45.40;;;;;;5082390;28;19920;-56
2024/01/07 06:14:16;;;;;;;;;;;19.10;45.40;;;;;;5083550;28;19978;-58
2024/01/07 06:16:43;;;;;;;;;;;19.10;45.40;;;;;;5083234;28;19927;-57
2024/01/07 06:19:10;;;;;;;;;;;19.10;45.30;;;;;;5091625;28;19973;-54
2024/01/07 06:21:38;;;;;;;;;;;19.20;45.50;;;;;;5091820;28;19932;-55
2024/01/07 06:24:05;;;;;;;;;;;19.20;45.40;;;;;;5091966;28;19920;-55
2024/01/07 06:26:33;;;;;;;;;;;19.10;45.30;;;;;;5076223;28;19971;-55
2024/01/07 06:29:00;;;;;;;;;;;19.20;45.40;;;;;;5089424;28;19927;-55
2024/01/07 06:31:27;;;;;;;;;;;19.10;45.40;;;;;;5091811;28;19946;-55
2024/01/07 06:33:55;;;;;;;;;;;19.10;45.40;;;;;;5076985;28;19923;-54
2024/01/07 06:36:22;;;;;;;;;;;19.10;45.40;;;;;;5074454;28;20015;-55
2024/01/07 06:38:49;;;;;;;;;;;19.10;45.40;;;;;;5080118;28;19920;-58
2024/01/07 06:41:16;;;;;;;;;;;19.10;45.40;;;;;;5078518;28;19932;-57
2024/01/07 06:43:44;;;;;;;;;;;19.10;45.40;;;;;;5092392;28;19950;-57
2024/01/07 06:46:11;;;;;;;;;;;19.10;45.40;;;;;;5089497;28;19920;-56
2024/01/07 06:48:38;;;;;;;;;;;19.20;45.50;;;;;;5091346;28;19920;-58
2024/01/07 06:51:05;;;;;;;;;;;19.20;45.50;;;;;;5078786;28;19991;-56
2024/01/07 06:53:32;;;;;;;;;;;19.10;45.40;;;;;;5081444;28;19920;-55
2024/01/07 06:55:59;;;;;;;;;;;19.10;45.50;;;;;;5092208;28;19920;-53
2024/01/07 06:58:25;;;;;;;;;;;19.10;45.50;;;;;;5091908;28;19920;-57
2024/01/07 07:00:54;;;;;;;;;;;19.10;45.50;;;;;;5067056;28;20095;-55
2024/01/07 07:03:22;;;;;;;;;;;19.10;45.50;;;;;;5088782;28;19920;-57
2024/01/07 07:05:49;;;;;;;;;;;19.10;45.60;;;;;;5079331;28;19920;-57
2024/01/07 07:08:16;;;;;;;;;;;19.10;45.60;;;;;;5078074;28;19920;-56
2024/01/07 07:10:43;;;;;;;;;;;19.10;45.60;;;;;;5088913;28;19924;-55
2024/01/07 07:13:09;;;;;;;;;;;19.10;45.60;;;;;;5090477;28;19931;-56
2024/01/07 07:15:37;;;;;;;;;;;19.10;45.60;;;;;;5083035;28;19932;-56
2024/01/07 07:18:05;;;;;;;;;;;19.10;45.60;;;;;;5079413;28;20328;-57
2024/01/07 07:20:39;;;;;;;;;;;19.10;45.60;;;;;;5075281;28;19966;-55
2024/01/07 07:23:06;;;;;;;;;;;19.20;45.70;;;;;;5078517;28;19924;-57
2024/01/07 07:25:33;;;;;;;;;;;19.10;45.70;;;;;;5068369;28;19963;-55
2024/01/07 07:28:00;;;;;;;;;;;19.10;45.70;;;;;;5083246;28;19921;-55
2024/01/07 07:30:27;;;;;;;;;;;19.10;45.60;;;;;;5082535;28;19920;-55
2024/01/07 07:32:54;;;;;;;;;;;19.10;45.60;;;;;;5080529;28;19924;-55
2024/01/07 07:35:23;;;;;;;;;;;19.10;45.60;;;;;;5080135;28;19920;-54
2024/01/07 07:37:49;;;;;;;;;;;19.10;45.60;;;;;;5077652;28;19920;-54
2024/01/07 07:40:16;;;;;;;;;;;19.10;45.60;;;;;;5071221;28;19927;-57
2024/01/07 07:42:45;;;;;;;;;;;19.10;45.60;;;;;;5081331;28;19920;-57
2024/01/07 07:45:12;;;;;;;;;;;19.10;45.50;;;;;;5089275;28;19987;-56
2024/01/07 07:47:44;;;;;;;;;;;19.10;45.50;;;;;;5092210;28;19920;-55
2024/01/07 07:50:11;;;;;;;;;;;19.10;45.50;;;;;;5091413;28;19920;-55
2024/01/07 07:52:39;;;;;;;;;;;19.10;45.50;;;;;;5089694;28;19970;-56
2024/01/07 07:55:07;;;;;;;;;;;19.10;45.50;;;;;;5092970;28;20411;-53
2024/01/07 07:57:34;;;;;;;;;;;19.10;45.50;;;;;;5092384;28;19920;-54
2024/01/07 08:00:01;;;;;;;;;;;19.10;45.50;;;;;;5091265;28;19936;-55
2024/01/07 08:02:28;;;;;;;;;;;19.10;45.40;;;;;;5078234;28;19920;-55
2024/01/07 08:04:55;;;;;;;;;;;19.10;45.40;;;;;;5065200;28;19928;-56
2024/01/07 08:07:21;;;;;;;;;;;19.10;45.40;;;;;;5093748;28;19920;-53
2024/01/07 08:09:50;;;;;;;;;;;19.10;45.40;;;;;;5092250;28;19943;-57
2024/01/07 08:12:16;;;;;;;;;;;19.10;45.40;;;;;;5077049;28;19927;-56
2024/01/07 08:14:43;;;;;;;;;;;19.10;45.40;;;;;;5076351;28;19920;-55
2024/01/07 08:17:10;;;;;;;;;;;19.10;45.40;;;;;;5081128;28;19920;-56
2024/01/07 08:19:36;;;;;;;;;;;19.10;45.40;;;;;;5098052;28;19920;-55
2024/01/07 08:22:02;;;;;;;;;;;19.10;45.40;;;;;;5091385;28;19924;-56
2024/01/07 08:24:29;;;;;;;;;;;19.10;45.40;;;;;;5091407;28;19927;-56
2024/01/07 08:26:57;;;;;;;;;;;19.10;45.40;;;;;;5077042;28;19981;-55
2024/01/07 08:29:24;;;;;;;;;;;19.10;45.40;;;;;;5094282;28;19966;-56
2024/01/07 08:31:51;;;;;;;;;;;19.10;45.40;;;;;;5077070;28;19920;-56
2024/01/07 08:34:17;;;;;;;;;;;19.10;45.40;;;;;;5076848;28;19927;-56
2024/01/07 08:36:44;;;;;;;;;;;19.10;45.50;;;;;;5074867;28;19920;-57
2024/01/07 08:39:11;;;;;;;;;;;19.10;45.50;;;;;;5073312;28;19981;-58
2024/01/07 08:41:38;;;;;;;;;;;19.10;45.50;;;;;;5084696;28;19920;-58
2024/01/07 08:44:08;;;;;;;;;;;19.10;45.50;;;;;;5077825;28;19924;-56
2024/01/07 08:46:34;;;;;;;;;;;19.10;45.50;;;;;;5087547;28;19978;-56
2024/01/07 08:49:02;;;;;;;;;;;19.10;45.50;;;;;;5083555;28;19947;-55
2024/01/07 08:51:29;;;;;;;;;;;19.10;45.50;;;;;;5093174;28;19920;-57
2024/01/07 08:53:57;;;;;;;;;;;19.10;45.60;;;;;;5095274;28;19958;-56
2024/01/07 08:56:24;;;;;;;;;;;19.10;45.60;;;;;;5060350;28;19924;-55
2024/01/07 08:58:52;;;;;;;;;;;19.10;45.60;;;;;;5077296;28;19920;-56
2024/01/07 09:01:20;;;;;;;;;;;19.10;45.60;;;;;;5072700;28;19920;-55
2024/01/07 09:03:46;;;;;;;;;;;19.10;45.60;;;;;;5079233;28;19927;-56
2024/01/07 09:06:13;;;;;;;;;;;19.10;45.70;;;;;;5081599;28;19992;-56
2024/01/07 09:08:40;;;;;;;;;;;19.10;45.60;;;;;;5083391;28;19920;-57
2024/01/07 09:11:10;;;;;;;;;;;19.10;45.70;;;;;;5084630;28;19920;-56
2024/01/07 09:13:37;;;;;;;;;;;19.10;46.20;;;;;;5079978;28;19920;-57
2024/01/07 09:16:04;;;;;;;;;;;19.10;45.70;;;;;;5092769;28;19928;-58
2024/01/07 09:18:32;;;;;;;;;;;19.10;45.70;;;;;;5090967;28;19920;-56
2024/01/07 09:20:59;;;;;;;;;;;19.10;45.70;;;;;;5083402;28;19926;-58
2024/01/07 09:23:26;;;;;;;;;;;19.10;45.70;;;;;;5082441;28;19925;-57
2024/01/07 09:25:53;;;;;;;;;;;19.10;45.70;;;;;;5071380;28;19932;-55
2024/01/07 09:28:20;;;;;;;;;;;19.10;45.70;;;;;;5084183;28;19920;-57
2024/01/07 09:30:46;;;;;;;;;;;19.10;45.70;;;;;;5093382;28;19920;-56
2024/01/07 09:33:15;;;;;;;;;;;19.10;45.70;;;;;;5090792;28;19973;-56
2024/01/07 09:35:44;;;;;;;;;;;19.10;45.70;;;;;;5092924;28;19927;-56
2024/01/07 09:38:11;;;;;;;;;;;19.10;45.70;;;;;;5093025;28;20582;-56
2024/01/07 09:40:39;;;;;;;;;;;19.10;46.20;;;;;;5083018;28;19920;-56
2024/01/07 09:43:05;;;;;;;;;;;19.10;45.70;;;;;;5056680;28;19932;-55
2024/01/07 09:45:33;;;;;;;;;;;19.10;45.60;;;;;;5076911;28;19924;-58
2024/01/07 09:48:00;;;;;;;;;;;19.10;45.60;;;;;;5082838;28;19920;-55
2024/01/07 09:50:27;;;;;;;;;;;19.10;45.60;;;;;;5087513;28;19926;-58
2024/01/07 09:52:57;;;;;;;;;;;19.10;45.60;;;;;;5079862;28;19928;-58
2024/01/07 09:55:27;;;;;;;;;;;19.10;45.60;;;;;;5092039;28;19927;-57
2024/01/07 09:57:54;;;;;;;;;;;19.10;45.60;;;;;;5074578;28;20341;-57
2024/01/07 10:00:21;;;;;;;;;;;19.10;45.50;;;;;;5092960;28;19932;-50
2024/01/07 10:02:48;;;;;;;;;;;19.10;43.40;;;;;;5083242;28;20307;-51
2024/01/07 10:05:16;;;;;;;;;;;19.10;39.80;;;;;;5075753;28;19962;-49
2024/01/07 10:07:43;;;;;;;;;;;19.00;38.90;;;;;;5091673;28;19932;-55
2024/01/07 10:10:15;;;;;;;;;;;18.90;39.00;;;;;;5091412;28;20357;-46
2024/01/07 10:12:42;;;;;;;;;;;18.80;39.30;;;;;;5088797;28;19924;-53
2024/01/07 10:15:09;;;;;;;;;;;18.70;39.50;;;;;;5074634;28;20019;-49
2024/01/07 10:17:36;;;;;;;;;;;18.70;39.60;;;;;;5072184;28;19928;-58
2024/01/07 10:20:03;;;;;;;;;;;18.70;39.80;;;;;;5092442;28;19920;-53
2024/01/07 10:22:30;;;;;;;;;;;18.70;40.50;;;;;;5078905;28;19920;-56
2024/01/07 10:24:57;;;;;;;;;;;18.70;41.00;;;;;;5092897;28;19935;-57
2024/01/07 10:27:25;;;;;;;;;;;18.70;41.40;;;;;;5083520;28;19932;-55
2024/01/07 10:29:55;;;;;;;;;;;18.70;41.70;;;;;;5081343;28;19920;-56
2024/01/07 10:32:21;;;;;;;;;;;18.70;42.00;;;;;;5084105;28;19920;-57
2024/01/07 10:34:48;;;;;;;;;;;18.70;42.20;;;;;;5078668;28;20045;-53
2024/01/07 10:37:15;;;;;;;;;;;18.70;42.40;;;;;;5078649;28;20315;-55
2024/01/07 10:39:42;;;;;;;;;;;18.80;42.60;;;;;;5091929;28;20360;-55
2024/01/07 10:42:08;;;;;;;;;;;18.80;42.80;;;;;;5091094;28;19942;-56
2024/01/07 10:44:37;;;;;;;;;;;18.80;42.90;;;;;;5083606;28;19924;-56
2024/01/07 10:47:05;;;;;;;;;;;18.80;42.90;;;;;;5072009;28;20006;-55
2024/01/07 10:49:31;;;;;;;;;;;18.80;43.00;;;;;;5091356;28;19931;-52
2024/01/07 10:52:04;;;;;;;;;;;18.90;43.20;;;;;;5069589;28;20311;-56
2024/01/07 10:54:31;;;;;;;;;;;18.90;43.30;;;;;;5088828;28;19939;-55
2024/01/07 10:57:00;;;;;;;;;;;18.90;44.00;;;;;;5089497;28;19923;-53
2024/01/07 10:59:27;;;;;;;;;;;18.90;43.50;;;;;;5078554;28;19936;-53
2024/01/07 11:01:56;;;;;;;;;;;18.90;43.50;;;;;;5077475;28;19927;-56
2024/01/07 11:04:24;;;;;;;;;;;18.90;43.50;;;;;;5073388;28;19970;-56
2024/01/07 11:06:52;;;;;;;;;;;18.90;43.60;;;;;;5078748;28;20370;-53
2024/01/07 11:09:20;;;;;;;;;;;18.90;43.60;;;;;;5074222;28;19985;-57
2024/01/07 11:11:47;;;;;;;;;;;18.90;43.70;;;;;;5073613;28;19924;-57
2024/01/07 11:14:36;;;;;;;;;;;19.00;43.80;;;;;;5084537;28;19927;-54
2024/01/07 11:17:04;;;;;;;;;;;19.00;43.80;;;;;;5077944;28;19954;-56
2024/01/07 11:19:31;;;;;;;;;;;19.00;43.90;;;;;;5075276;28;19920;-57
2024/01/07 11:22:12;;;;;;;;;;;18.90;43.80;;;;;;5089381;28;20019;-52
2024/01/07 11:24:40;;;;;;;;;;;19.00;43.90;;;;;;5090294;28;19924;-57
2024/01/07 11:27:09;;;;;;;;;;;19.00;44.00;;;;;;5088540;28;20360;-56
2024/01/07 11:29:36;;;;;;;;;;;19.00;44.00;;;;;;5090874;28;19924;-58
2024/01/07 11:32:04;;;;;;;;;;;19.00;44.00;;;;;;5076566;28;20149;-54
2024/01/07 11:34:41;;;;;;;;;;;19.00;44.10;;;;;;5072768;28;19923;-54
2024/01/07 11:37:08;;;;;;;;;;;19.00;44.10;;;;;;5072043;28;20004;-55
2024/01/07 11:39:37;;;;;;;;;;;19.00;44.10;;;;;;5089067;28;20315;-55
2024/01/07 11:42:04;;;;;;;;;;;19.00;44.10;;;;;;5072660;28;19924;-55
2024/01/07 11:44:31;;;;;;;;;;;19.00;44.20;;;;;;5071565;28;20018;-53
2024/01/07 11:46:57;;;;;;;;;;;19.00;44.20;;;;;;5072100;28;19923;-56
2024/01/07 11:49:26;;;;;;;;;;;19.00;44.20;;;;;;5075848;28;19930;-53
2024/01/07 11:51:52;;;;;;;;;;;19.00;44.20;;;;;;5074046;28;19936;-57
2024/01/07 11:54:19;;;;;;;;;;;19.00;44.30;;;;;;5072181;28;20007;-56
2024/01/07 11:56:46;;;;;;;;;;;19.00;44.20;;;;;;5091276;28;19920;-54
2024/01/07 11:59:13;;;;;;;;;;;19.00;44.30;;;;;;5079325;28;20320;-55
2024/01/07 12:01:40;;;;;;;;;;;19.00;44.30;;;;;;5093431;28;19930;-53
2024/01/07 12:04:07;;;;;;;;;;;19.00;44.30;;;;;;5051706;28;20032;-55
2024/01/07 12:06:36;;;;;;;;;;;19.00;44.30;;;;;;5079489;28;20011;-50
2024/01/07 12:09:03;;;;;;;;;;;19.00;44.60;;;;;;5084794;28;19932;-51
2024/01/07 12:11:30;;;;;;;;;;;19.00;44.40;;;;;;5085255;28;20010;-54
2024/01/07 12:13:56;;;;;;;;;;;19.00;44.40;;;;;;5086981;28;19927;-48
2024/01/07 12:16:23;;;;;;;;;;;19.00;44.50;;;;;;5081154;28;19993;-53
2024/01/07 12:18:50;;;;;;;;;;;19.00;44.50;;;;;;5075672;28;19981;-52
2024/01/07 12:21:19;;;;;;;;;;;19.00;44.50;;;;;;5065492;28;19927;-54
2024/01/07 12:23:48;;;;;;;;;;;19.00;44.50;;;;;;5075558;28;19924;-51
2024/01/07 12:26:15;;;;;;;;;;;19.00;44.50;;;;;;5082099;28;19924;-55
2024/01/07 12:28:42;;;;;;;;;;;19.10;44.50;;;;;;5072619;28;19928;-54
2024/01/07 12:31:11;;;;;;;;;;;19.10;44.60;;;;;;5059319;28;19924;-54
2024/01/07 12:33:38;;;;;;;;;;;19.10;44.60;;;;;;5089770;28;19928;-55
2024/01/07 12:36:04;;;;;;;;;;;19.10;44.60;;;;;;5073290;28;20372;-55
2024/01/07 12:38:32;;;;;;;;;;;19.10;44.60;;;;;;5072245;28;19920;-54
2024/01/07 12:41:00;;;;;;;;;;;19.10;44.70;;;;;;5076380;28;19924;-52
2024/01/07 12:43:27;;;;;;;;;;;19.10;44.70;;;;;;5086805;28;20023;-50
2024/01/07 12:45:55;;;;;;;;;;;19.10;44.70;;;;;;5075738;28;19924;-51
2024/01/07 12:48:23;;;;;;;;;;;19.20;44.80;;;;;;5076461;28;19932;-51
2024/01/07 12:50:52;;;;;;;;;;;19.10;44.70;;;;;;5071883;28;19924;-55
2024/01/07 12:53:19;;;;;;;;;;;19.10;44.80;;;;;;5047798;28;20351;-51
2024/01/07 12:55:46;;;;;;;;;;;19.20;44.90;;;;;;5087523;28;19927;-55
2024/01/07 12:58:16;;;;;;;;;;;19.20;45.00;;;;;;5091009;28;19920;-53
2024/01/07 13:00:43;;;;;;;;;;;19.20;45.00;;;;;;5089896;28;19989;-54
2024/01/07 13:03:14;;;;;;;;;;;19.20;45.00;;;;;;5071060;28;19920;-54
2024/01/07 13:05:42;;;;;;;;;;;19.20;45.00;;;;;;5087404;28;19927;-55
2024/01/07 13:08:10;;;;;;;;;;;19.20;45.10;;;;;;5062204;28;19924;-53
2024/01/07 13:10:37;;;;;;;;;;;19.20;45.00;;;;;;5092788;28;19936;-52
2024/01/07 13:13:04;;;;;;;;;;;19.20;45.10;;;;;;5077989;28;20162;-56
2024/01/07 13:15:33;;;;;;;;;;;19.20;45.10;;;;;;5088355;28;19974;-55
2024/01/07 13:18:00;;;;;;;;;;;19.30;45.10;;;;;;5060306;28;19942;-54
2024/01/07 13:20:27;;;;;;;;;;;19.30;45.20;;;;;;5088261;28;20376;-53
2024/01/07 13:22:55;;;;;;;;;;;19.30;45.20;;;;;;5090329;28;19926;-52
2024/01/07 13:25:22;;;;;;;;;;;19.30;45.20;;;;;;5084087;28;19993;-55
2024/01/07 13:27:49;;;;;;;;;;;19.30;45.20;;;;;;5089287;28;19961;-49
2024/01/07 13:30:16;;;;;;;;;;;19.30;45.20;;;;;;5089637;28;19966;-53
2024/01/07 13:32:44;;;;;;;;;;;19.30;45.20;;;;;;5082889;28;19922;-54
2024/01/07 13:35:12;;;;;;;;;;;19.30;45.20;;;;;;5085749;28;19939;-55
2024/01/07 13:37:41;;;;;;;;;;;19.30;45.20;;;;;;5085268;28;19931;-54
2024/01/07 13:40:10;;;;;;;;;;;19.30;45.20;;;;;;5075604;28;19924;-52
2024/01/07 13:42:37;;;;;;;;;;;19.30;45.20;;;;;;5083137;28;19920;-53
2024/01/07 13:45:04;;;;;;;;;;;19.30;45.20;;;;;;5088501;28;19924;-49
2024/01/07 13:47:30;;;;;;;;;;;19.30;45.20;;;;;;5076179;28;19924;-52
2024/01/07 13:49:59;;;;;;;;;;;19.30;45.20;;;;;;5079574;28;19978;-52
2024/01/07 13:52:25;;;;;;;;;;;19.30;45.20;;;;;;5067364;28;19982;-49
2024/01/07 13:54:52;;;;;;;;;;;19.30;45.20;;;;;;5087738;28;19977;-51
2024/01/07 13:57:19;;;;;;;;;;;19.30;45.20;;;;;;5087836;28;20394;-53
2024/01/07 13:59:45;;;;;;;;;;;19.30;45.30;;;;;;5089059;28;19928;-53
2024/01/07 14:02:12;;;;;;;;;;;19.30;45.20;;;;;;5070053;28;20014;-49
2024/01/07 14:04:39;;;;;;;;;;;19.30;45.20;;;;;;5086316;28;19939;-50
2024/01/07 14:07:07;;;;;;;;;;;19.30;45.30;;;;;;5088371;28;19921;-55
2024/01/07 14:09:34;;;;;;;;;;;19.40;45.40;;;;;;5080221;28;19932;-55
2024/01/07 14:12:02;;;;;;;;;;;19.40;45.40;;;;;;5070781;28;19933;-54
2024/01/07 14:14:29;;;;;;;;;;;19.40;45.40;;;;;;5082600;28;19942;-53
2024/01/07 14:16:55;;;;;;;;;;;19.30;45.30;;;;;;5091527;28;19932;-52